sensor_id;sensor_type;location;lat;lon;timestamp;P1;durP1;ratioP1;P2;durP2;ratioP2
38591;SDS011;24356;48.460;11.450;2023-08-01T00:00:46;3.88;;;3.08;;
38591;SDS011;24356;48.460;11.450;2023-08-01T00:03:12;4.68;;;3.30;;
38591;SDS011;24356;48.460;11.450;2023-08-01T00:05:39;6.05;;;2.80;;
38591;SDS011;24356;48.460;11.450;2023-08-01T00:08:09;4.93;;;2.97;;
38591;SDS011;24356;48.460;11.450;2023-08-01T00:10:38;7.90;;;3.35;;
38591;SDS011;24356;48.460;11.450;2023-08-01T00:13:04;5.22;;;3.20;;
38591;SDS011;24356;48.460;11.450;2023-08-01T00:15:30;6.55;;;3.22;;
38591;SDS011;24356;48.460;11.450;2023-08-01T00:17:55;5.10;;;2.97;;
38591;SDS011;24356;48.460;11.450;2023-08-01T00:20:21;5.78;;;3.30;;
38591;SDS011;24356;48.460;11.450;2023-08-01T00:22:47;6.78;;;3.05;;
38591;SDS011;24356;48.460;11.450;2023-08-01T00:25:13;9.20;;;3.10;;
38591;SDS011;24356;48.460;11.450;2023-08-01T00:27:38;6.53;;;3.13;;
38591;SDS011;24356;48.460;11.450;2023-08-01T00:30:04;8.63;;;3.78;;
38591;SDS011;24356;48.460;11.450;2023-08-01T00:32:30;6.55;;;3.22;;
38591;SDS011;24356;48.460;11.450;2023-08-01T00:34:56;5.18;;;3.10;;
38591;SDS011;24356;48.460;11.450;2023-08-01T00:37:22;7.18;;;3.30;;
38591;SDS011;24356;48.460;11.450;2023-08-01T00:39:47;7.90;;;3.03;;
38591;SDS011;24356;48.460;11.450;2023-08-01T00:42:13;6.97;;;3.47;;
38591;SDS011;24356;48.460;11.450;2023-08-01T00:44:40;6.78;;;3.00;;
38591;SDS011;24356;48.460;11.450;2023-08-01T00:47:05;7.70;;;3.40;;
38591;SDS011;24356;48.460;11.450;2023-08-01T00:49:32;5.40;;;3.10;;
38591;SDS011;24356;48.460;11.450;2023-08-01T00:51:58;6.28;;;3.40;;
38591;SDS011;24356;48.460;11.450;2023-08-01T00:54:24;4.63;;;2.92;;
38591;SDS011;24356;48.460;11.450;2023-08-01T00:56:50;5.10;;;3.30;;
38591;SDS011;24356;48.460;11.450;2023-08-01T00:59:16;7.32;;;3.20;;
38591;SDS011;24356;48.460;11.450;2023-08-01T01:01:41;4.13;;;2.90;;
38591;SDS011;24356;48.460;11.450;2023-08-01T01:04:07;8.57;;;3.70;;
38591;SDS011;24356;48.460;11.450;2023-08-01T01:06:51;6.57;;;3.40;;
38591;SDS011;24356;48.460;11.450;2023-08-01T01:09:23;6.18;;;3.33;;
38591;SDS011;24356;48.460;11.450;2023-08-01T01:11:49;6.32;;;2.80;;
38591;SDS011;24356;48.460;11.450;2023-08-01T01:14:14;5.47;;;3.55;;
38591;SDS011;24356;48.460;11.450;2023-08-01T01:16:40;6.20;;;3.33;;
38591;SDS011;24356;48.460;11.450;2023-08-01T01:19:06;5.68;;;3.05;;
38591;SDS011;24356;48.460;11.450;2023-08-01T01:21:37;6.28;;;3.40;;
38591;SDS011;24356;48.460;11.450;2023-08-01T01:24:04;4.55;;;3.35;;
38591;SDS011;24356;48.460;11.450;2023-08-01T01:26:32;6.32;;;3.53;;
38591;SDS011;24356;48.460;11.450;2023-08-01T01:28:59;5.60;;;3.70;;
38591;SDS011;24356;48.460;11.450;2023-08-01T01:31:27;6.30;;;3.53;;
38591;SDS011;24356;48.460;11.450;2023-08-01T01:33:54;7.53;;;3.58;;
38591;SDS011;24356;48.460;11.450;2023-08-01T01:36:20;7.20;;;3.35;;
38591;SDS011;24356;48.460;11.450;2023-08-01T01:38:45;7.07;;;3.38;;
38591;SDS011;24356;48.460;11.450;2023-08-01T01:41:11;7.03;;;3.40;;
38591;SDS011;24356;48.460;11.450;2023-08-01T01:43:37;5.80;;;3.47;;
38591;SDS011;24356;48.460;11.450;2023-08-01T01:46:05;7.55;;;3.58;;
38591;SDS011;24356;48.460;11.450;2023-08-01T01:48:31;5.22;;;2.95;;
38591;SDS011;24356;48.460;11.450;2023-08-01T01:50:57;6.00;;;3.53;;
38591;SDS011;24356;48.460;11.450;2023-08-01T01:53:22;8.23;;;3.35;;
38591;SDS011;24356;48.460;11.450;2023-08-01T01:55:48;5.85;;;3.35;;
38591;SDS011;24356;48.460;11.450;2023-08-01T01:58:14;5.35;;;3.42;;
38591;SDS011;24356;48.460;11.450;2023-08-01T02:00:39;5.40;;;3.58;;
38591;SDS011;24356;48.460;11.450;2023-08-01T02:03:05;7.63;;;3.40;;
38591;SDS011;24356;48.460;11.450;2023-08-01T02:05:32;5.45;;;3.28;;
38591;SDS011;24356;48.460;11.450;2023-08-01T02:07:58;5.07;;;3.25;;
38591;SDS011;24356;48.460;11.450;2023-08-01T02:10:23;7.38;;;3.50;;
38591;SDS011;24356;48.460;11.450;2023-08-01T02:12:49;7.18;;;3.08;;
38591;SDS011;24356;48.460;11.450;2023-08-01T02:15:15;5.25;;;2.80;;
38591;SDS011;24356;48.460;11.450;2023-08-01T02:17:40;5.07;;;3.05;;
38591;SDS011;24356;48.460;11.450;2023-08-01T02:20:06;6.15;;;3.22;;
38591;SDS011;24356;48.460;11.450;2023-08-01T02:22:32;5.05;;;3.15;;
38591;SDS011;24356;48.460;11.450;2023-08-01T02:25:00;4.85;;;3.10;;
38591;SDS011;24356;48.460;11.450;2023-08-01T02:27:25;7.68;;;3.58;;
38591;SDS011;24356;48.460;11.450;2023-08-01T02:29:51;6.15;;;3.40;;
38591;SDS011;24356;48.460;11.450;2023-08-01T02:32:17;4.45;;;2.97;;
38591;SDS011;24356;48.460;11.450;2023-08-01T02:34:43;4.20;;;3.05;;
38591;SDS011;24356;48.460;11.450;2023-08-01T02:37:08;8.35;;;3.75;;
38591;SDS011;24356;48.460;11.450;2023-08-01T02:39:34;5.28;;;3.30;;
38591;SDS011;24356;48.460;11.450;2023-08-01T02:42:00;9.00;;;3.63;;
38591;SDS011;24356;48.460;11.450;2023-08-01T02:44:26;12.85;;;3.67;;
38591;SDS011;24356;48.460;11.450;2023-08-01T02:46:52;5.65;;;3.55;;
38591;SDS011;24356;48.460;11.450;2023-08-01T02:49:19;6.28;;;3.33;;
38591;SDS011;24356;48.460;11.450;2023-08-01T02:51:45;6.00;;;3.40;;
38591;SDS011;24356;48.460;11.450;2023-08-01T02:54:11;5.88;;;3.60;;
38591;SDS011;24356;48.460;11.450;2023-08-01T02:56:37;5.38;;;3.50;;
38591;SDS011;24356;48.460;11.450;2023-08-01T02:59:09;5.07;;;2.90;;
38591;SDS011;24356;48.460;11.450;2023-08-01T03:01:38;6.82;;;3.75;;
38591;SDS011;24356;48.460;11.450;2023-08-01T03:04:04;4.65;;;2.80;;
38591;SDS011;24356;48.460;11.450;2023-08-01T03:06:31;5.90;;;3.72;;
38591;SDS011;24356;48.460;11.450;2023-08-01T03:08:59;7.25;;;3.15;;
38591;SDS011;24356;48.460;11.450;2023-08-01T03:11:25;8.25;;;3.20;;
38591;SDS011;24356;48.460;11.450;2023-08-01T03:13:51;6.10;;;3.00;;
38591;SDS011;24356;48.460;11.450;2023-08-01T03:16:18;6.50;;;3.22;;
38591;SDS011;24356;48.460;11.450;2023-08-01T03:18:43;7.95;;;3.60;;
38591;SDS011;24356;48.460;11.450;2023-08-01T03:21:09;4.82;;;3.40;;
38591;SDS011;24356;48.460;11.450;2023-08-01T03:23:36;6.10;;;3.50;;
38591;SDS011;24356;48.460;11.450;2023-08-01T03:26:04;7.50;;;3.38;;
38591;SDS011;24356;48.460;11.450;2023-08-01T03:28:29;6.28;;;3.33;;
38591;SDS011;24356;48.460;11.450;2023-08-01T03:30:55;6.45;;;3.20;;
38591;SDS011;24356;48.460;11.450;2023-08-01T03:33:21;6.13;;;3.60;;
38591;SDS011;24356;48.460;11.450;2023-08-01T03:35:47;6.85;;;3.60;;
38591;SDS011;24356;48.460;11.450;2023-08-01T03:38:12;7.47;;;3.75;;
38591;SDS011;24356;48.460;11.450;2023-08-01T03:40:38;5.90;;;3.35;;
38591;SDS011;24356;48.460;11.450;2023-08-01T03:43:03;5.53;;;3.38;;
38591;SDS011;24356;48.460;11.450;2023-08-01T03:45:31;8.52;;;3.88;;
38591;SDS011;24356;48.460;11.450;2023-08-01T03:47:58;5.82;;;3.47;;
38591;SDS011;24356;48.460;11.450;2023-08-01T03:50:24;7.50;;;3.50;;
38591;SDS011;24356;48.460;11.450;2023-08-01T03:52:49;7.28;;;3.47;;
38591;SDS011;24356;48.460;11.450;2023-08-01T03:55:15;8.98;;;3.42;;
38591;SDS011;24356;48.460;11.450;2023-08-01T03:57:41;8.45;;;3.70;;
38591;SDS011;24356;48.460;11.450;2023-08-01T04:00:07;4.97;;;2.40;;
38591;SDS011;24356;48.460;11.450;2023-08-01T04:02:41;6.80;;;3.63;;
38591;SDS011;24356;48.460;11.450;2023-08-01T04:05:07;7.88;;;3.90;;
38591;SDS011;24356;48.460;11.450;2023-08-01T04:07:34;7.82;;;3.78;;
38591;SDS011;24356;48.460;11.450;2023-08-01T04:10:01;7.53;;;3.95;;
38591;SDS011;24356;48.460;11.450;2023-08-01T04:12:27;8.85;;;3.80;;
38591;SDS011;24356;48.460;11.450;2023-08-01T04:14:53;7.20;;;3.97;;
38591;SDS011;24356;48.460;11.450;2023-08-01T04:17:18;8.02;;;4.03;;
38591;SDS011;24356;48.460;11.450;2023-08-01T04:19:44;8.25;;;3.75;;
38591;SDS011;24356;48.460;11.450;2023-08-01T04:22:10;7.18;;;3.60;;
38591;SDS011;24356;48.460;11.450;2023-08-01T04:24:35;7.22;;;3.70;;
38591;SDS011;24356;48.460;11.450;2023-08-01T04:27:01;18.73;;;3.92;;
38591;SDS011;24356;48.460;11.450;2023-08-01T04:29:26;6.53;;;3.88;;
38591;SDS011;24356;48.460;11.450;2023-08-01T04:31:52;7.60;;;4.20;;
38591;SDS011;24356;48.460;11.450;2023-08-01T04:34:17;6.45;;;4.10;;
38591;SDS011;24356;48.460;11.450;2023-08-01T04:36:43;8.43;;;4.47;;
38591;SDS011;24356;48.460;11.450;2023-08-01T04:39:09;6.30;;;3.83;;
38591;SDS011;24356;48.460;11.450;2023-08-01T04:41:34;6.85;;;3.90;;
38591;SDS011;24356;48.460;11.450;2023-08-01T04:44:00;6.88;;;3.95;;
38591;SDS011;24356;48.460;11.450;2023-08-01T04:46:27;10.07;;;3.85;;
38591;SDS011;24356;48.460;11.450;2023-08-01T04:48:53;9.50;;;4.03;;
38591;SDS011;24356;48.460;11.450;2023-08-01T04:51:20;8.43;;;4.10;;
38591;SDS011;24356;48.460;11.450;2023-08-01T04:53:45;7.70;;;4.30;;
38591;SDS011;24356;48.460;11.450;2023-08-01T04:56:11;7.82;;;4.13;;
38591;SDS011;24356;48.460;11.450;2023-08-01T04:58:36;8.65;;;4.28;;
38591;SDS011;24356;48.460;11.450;2023-08-01T05:01:02;7.03;;;4.07;;
38591;SDS011;24356;48.460;11.450;2023-08-01T05:03:27;6.20;;;4.28;;
38591;SDS011;24356;48.460;11.450;2023-08-01T05:05:53;9.18;;;4.32;;
38591;SDS011;24356;48.460;11.450;2023-08-01T05:08:19;7.68;;;4.45;;
38591;SDS011;24356;48.460;11.450;2023-08-01T05:10:44;6.07;;;3.78;;
38591;SDS011;24356;48.460;11.450;2023-08-01T05:13:10;6.65;;;3.90;;
38591;SDS011;24356;48.460;11.450;2023-08-01T05:15:35;8.90;;;4.35;;
38591;SDS011;24356;48.460;11.450;2023-08-01T05:18:01;7.25;;;4.43;;
38591;SDS011;24356;48.460;11.450;2023-08-01T05:20:26;10.40;;;4.80;;
38591;SDS011;24356;48.460;11.450;2023-08-01T05:22:56;6.65;;;4.50;;
38591;SDS011;24356;48.460;11.450;2023-08-01T05:25:22;7.00;;;4.00;;
38591;SDS011;24356;48.460;11.450;2023-08-01T05:27:49;10.82;;;4.93;;
38591;SDS011;24356;48.460;11.450;2023-08-01T05:30:15;8.80;;;4.93;;
38591;SDS011;24356;48.460;11.450;2023-08-01T05:32:40;7.88;;;4.45;;
38591;SDS011;24356;48.460;11.450;2023-08-01T05:35:06;8.05;;;4.30;;
38591;SDS011;24356;48.460;11.450;2023-08-01T05:37:32;10.73;;;4.78;;
38591;SDS011;24356;48.460;11.450;2023-08-01T05:39:58;9.32;;;4.47;;
38591;SDS011;24356;48.460;11.450;2023-08-01T05:42:23;7.47;;;4.57;;
38591;SDS011;24356;48.460;11.450;2023-08-01T05:44:49;12.57;;;4.72;;
38591;SDS011;24356;48.460;11.450;2023-08-01T05:47:14;8.57;;;4.82;;
38591;SDS011;24356;48.460;11.450;2023-08-01T05:49:40;11.20;;;4.97;;
38591;SDS011;24356;48.460;11.450;2023-08-01T05:52:06;9.77;;;4.85;;
38591;SDS011;24356;48.460;11.450;2023-08-01T05:54:32;8.27;;;5.93;;
38591;SDS011;24356;48.460;11.450;2023-08-01T05:56:58;12.10;;;5.05;;
38591;SDS011;24356;48.460;11.450;2023-08-01T05:59:23;8.98;;;4.70;;
38591;SDS011;24356;48.460;11.450;2023-08-01T06:01:49;10.55;;;4.38;;
38591;SDS011;24356;48.460;11.450;2023-08-01T06:04:15;8.40;;;4.68;;
38591;SDS011;24356;48.460;11.450;2023-08-01T06:06:40;10.63;;;5.05;;
38591;SDS011;24356;48.460;11.450;2023-08-01T06:09:06;10.25;;;6.45;;
38591;SDS011;24356;48.460;11.450;2023-08-01T06:11:32;9.00;;;5.28;;
38591;SDS011;24356;48.460;11.450;2023-08-01T06:13:58;9.38;;;4.93;;
38591;SDS011;24356;48.460;11.450;2023-08-01T06:16:24;7.45;;;4.93;;
38591;SDS011;24356;48.460;11.450;2023-08-01T06:18:49;9.40;;;5.30;;
38591;SDS011;24356;48.460;11.450;2023-08-01T06:21:15;8.73;;;4.68;;
38591;SDS011;24356;48.460;11.450;2023-08-01T06:23:41;9.65;;;5.22;;
38591;SDS011;24356;48.460;11.450;2023-08-01T06:26:06;8.95;;;5.30;;
38591;SDS011;24356;48.460;11.450;2023-08-01T06:28:32;8.27;;;4.78;;
38591;SDS011;24356;48.460;11.450;2023-08-01T06:30:57;7.53;;;4.57;;
38591;SDS011;24356;48.460;11.450;2023-08-01T06:33:23;11.27;;;4.88;;
38591;SDS011;24356;48.460;11.450;2023-08-01T06:35:49;7.72;;;4.32;;
38591;SDS011;24356;48.460;11.450;2023-08-01T06:38:14;7.53;;;4.63;;
38591;SDS011;24356;48.460;11.450;2023-08-01T06:40:40;8.30;;;4.85;;
38591;SDS011;24356;48.460;11.450;2023-08-01T06:43:05;9.82;;;4.75;;
38591;SDS011;24356;48.460;11.450;2023-08-01T06:45:31;8.25;;;4.50;;
38591;SDS011;24356;48.460;11.450;2023-08-01T06:47:57;7.95;;;4.85;;
38591;SDS011;24356;48.460;11.450;2023-08-01T06:50:22;9.27;;;4.68;;
38591;SDS011;24356;48.460;11.450;2023-08-01T06:52:48;10.38;;;5.45;;
38591;SDS011;24356;48.460;11.450;2023-08-01T06:55:14;8.70;;;4.95;;
38591;SDS011;24356;48.460;11.450;2023-08-01T06:57:39;6.00;;;4.60;;
38591;SDS011;24356;48.460;11.450;2023-08-01T07:00:05;11.25;;;4.43;;
38591;SDS011;24356;48.460;11.450;2023-08-01T07:02:31;5.93;;;4.03;;
38591;SDS011;24356;48.460;11.450;2023-08-01T07:04:58;9.63;;;4.45;;
38591;SDS011;24356;48.460;11.450;2023-08-01T07:07:23;10.20;;;5.40;;
38591;SDS011;24356;48.460;11.450;2023-08-01T07:09:49;8.38;;;4.22;;
38591;SDS011;24356;48.460;11.450;2023-08-01T07:12:15;9.50;;;4.85;;
38591;SDS011;24356;48.460;11.450;2023-08-01T07:14:40;8.50;;;3.90;;
38591;SDS011;24356;48.460;11.450;2023-08-01T07:17:06;8.30;;;4.70;;
38591;SDS011;24356;48.460;11.450;2023-08-01T07:19:31;6.82;;;3.97;;
38591;SDS011;24356;48.460;11.450;2023-08-01T07:21:57;9.15;;;4.28;;
38591;SDS011;24356;48.460;11.450;2023-08-01T07:24:24;6.57;;;4.13;;
38591;SDS011;24356;48.460;11.450;2023-08-01T07:26:51;8.50;;;3.95;;
38591;SDS011;24356;48.460;11.450;2023-08-01T07:29:16;7.30;;;4.35;;
38591;SDS011;24356;48.460;11.450;2023-08-01T07:31:42;5.50;;;3.50;;
38591;SDS011;24356;48.460;11.450;2023-08-01T07:34:08;7.45;;;3.85;;
38591;SDS011;24356;48.460;11.450;2023-08-01T07:36:33;6.13;;;3.85;;
38591;SDS011;24356;48.460;11.450;2023-08-01T07:38:59;8.25;;;4.10;;
38591;SDS011;24356;48.460;11.450;2023-08-01T07:41:25;7.18;;;3.92;;
38591;SDS011;24356;48.460;11.450;2023-08-01T07:43:50;6.45;;;3.85;;
38591;SDS011;24356;48.460;11.450;2023-08-01T07:46:16;11.32;;;4.47;;
38591;SDS011;24356;48.460;11.450;2023-08-01T07:48:41;5.80;;;3.83;;
38591;SDS011;24356;48.460;11.450;2023-08-01T07:51:07;8.55;;;3.50;;
38591;SDS011;24356;48.460;11.450;2023-08-01T07:53:36;6.20;;;3.53;;
38591;SDS011;24356;48.460;11.450;2023-08-01T07:56:01;9.00;;;3.42;;
38591;SDS011;24356;48.460;11.450;2023-08-01T07:58:27;4.18;;;2.83;;
38591;SDS011;24356;48.460;11.450;2023-08-01T08:00:53;5.93;;;3.78;;
38591;SDS011;24356;48.460;11.450;2023-08-01T08:03:19;6.75;;;4.20;;
38591;SDS011;24356;48.460;11.450;2023-08-01T08:10:58;5.85;;;3.38;;
38591;SDS011;24356;48.460;11.450;2023-08-01T08:13:23;5.40;;;3.58;;
38591;SDS011;24356;48.460;11.450;2023-08-01T08:15:50;9.52;;;3.70;;
38591;SDS011;24356;48.460;11.450;2023-08-01T08:18:16;5.13;;;3.28;;
38591;SDS011;24356;48.460;11.450;2023-08-01T08:20:44;7.00;;;3.30;;
38591;SDS011;24356;48.460;11.450;2023-08-01T08:23:10;8.38;;;3.72;;
38591;SDS011;24356;48.460;11.450;2023-08-01T08:25:39;9.10;;;3.33;;
38591;SDS011;24356;48.460;11.450;2023-08-01T08:28:31;6.00;;;3.28;;
38591;SDS011;24356;48.460;11.450;2023-08-01T08:31:18;7.20;;;3.13;;
38591;SDS011;24356;48.460;11.450;2023-08-01T08:33:45;5.95;;;3.45;;
38591;SDS011;24356;48.460;11.450;2023-08-01T08:36:11;8.52;;;3.95;;
38591;SDS011;24356;48.460;11.450;2023-08-01T08:38:37;5.68;;;3.33;;
38591;SDS011;24356;48.460;11.450;2023-08-01T08:43:34;6.45;;;3.50;;
38591;SDS011;24356;48.460;11.450;2023-08-01T08:46:01;6.47;;;3.40;;
38591;SDS011;24356;48.460;11.450;2023-08-01T08:48:28;5.35;;;3.58;;
38591;SDS011;24356;48.460;11.450;2023-08-01T08:50:55;4.85;;;3.30;;
38591;SDS011;24356;48.460;11.450;2023-08-01T08:53:22;6.18;;;3.50;;
38591;SDS011;24356;48.460;11.450;2023-08-01T08:55:48;5.95;;;3.67;;
38591;SDS011;24356;48.460;11.450;2023-08-01T08:58:15;4.70;;;3.38;;
38591;SDS011;24356;48.460;11.450;2023-08-01T09:00:41;5.30;;;3.70;;
38591;SDS011;24356;48.460;11.450;2023-08-01T09:03:08;7.53;;;3.45;;
38591;SDS011;24356;48.460;11.450;2023-08-01T09:05:40;6.30;;;3.60;;
38591;SDS011;24356;48.460;11.450;2023-08-01T09:08:16;4.78;;;3.38;;
38591;SDS011;24356;48.460;11.450;2023-08-01T09:10:44;4.80;;;3.22;;
38591;SDS011;24356;48.460;11.450;2023-08-01T09:13:10;7.20;;;3.33;;
38591;SDS011;24356;48.460;11.450;2023-08-01T09:15:36;6.97;;;3.60;;
38591;SDS011;24356;48.460;11.450;2023-08-01T09:18:05;8.80;;;3.50;;
38591;SDS011;24356;48.460;11.450;2023-08-01T09:20:45;7.32;;;3.88;;
38591;SDS011;24356;48.460;11.450;2023-08-01T09:23:12;5.00;;;3.38;;
38591;SDS011;24356;48.460;11.450;2023-08-01T09:25:39;5.65;;;3.00;;
38591;SDS011;24356;48.460;11.450;2023-08-01T09:28:15;5.57;;;3.33;;
38591;SDS011;24356;48.460;11.450;2023-08-01T09:30:45;7.35;;;3.45;;
38591;SDS011;24356;48.460;11.450;2023-08-01T09:33:12;4.43;;;3.08;;
38591;SDS011;24356;48.460;11.450;2023-08-01T09:35:38;7.18;;;3.08;;
38591;SDS011;24356;48.460;11.450;2023-08-01T09:38:04;5.90;;;3.45;;
38591;SDS011;24356;48.460;11.450;2023-08-01T09:40:36;5.43;;;3.30;;
38591;SDS011;24356;48.460;11.450;2023-08-01T09:43:02;6.07;;;3.13;;
38591;SDS011;24356;48.460;11.450;2023-08-01T09:45:28;5.43;;;3.13;;
38591;SDS011;24356;48.460;11.450;2023-08-01T09:47:54;5.25;;;3.30;;
38591;SDS011;24356;48.460;11.450;2023-08-01T09:50:20;5.70;;;3.10;;
38591;SDS011;24356;48.460;11.450;2023-08-01T09:52:47;5.20;;;3.20;;
38591;SDS011;24356;48.460;11.450;2023-08-01T09:55:19;4.60;;;3.17;;
38591;SDS011;24356;48.460;11.450;2023-08-01T09:57:53;5.65;;;3.30;;
38591;SDS011;24356;48.460;11.450;2023-08-01T10:00:21;6.85;;;3.58;;
38591;SDS011;24356;48.460;11.450;2023-08-01T10:02:47;7.47;;;3.47;;
38591;SDS011;24356;48.460;11.450;2023-08-01T10:05:18;5.28;;;3.15;;
38591;SDS011;24356;48.460;11.450;2023-08-01T10:07:45;8.40;;;3.50;;
38591;SDS011;24356;48.460;11.450;2023-08-01T10:10:13;7.18;;;3.08;;
38591;SDS011;24356;48.460;11.450;2023-08-01T10:12:42;5.78;;;2.90;;
38591;SDS011;24356;48.460;11.450;2023-08-01T10:15:10;5.50;;;2.97;;
38591;SDS011;24356;48.460;11.450;2023-08-01T10:17:36;5.20;;;3.10;;
38591;SDS011;24356;48.460;11.450;2023-08-01T10:20:02;6.97;;;3.30;;
38591;SDS011;24356;48.460;11.450;2023-08-01T10:22:29;6.85;;;3.40;;
38591;SDS011;24356;48.460;11.450;2023-08-01T10:24:56;6.03;;;2.95;;
38591;SDS011;24356;48.460;11.450;2023-08-01T10:27:22;4.38;;;3.00;;
38591;SDS011;24356;48.460;11.450;2023-08-01T10:29:58;5.70;;;3.00;;
38591;SDS011;24356;48.460;11.450;2023-08-01T10:32:35;5.43;;;2.92;;
38591;SDS011;24356;48.460;11.450;2023-08-01T10:35:03;6.05;;;2.80;;
38591;SDS011;24356;48.460;11.450;2023-08-01T10:37:42;4.68;;;3.00;;
38591;SDS011;24356;48.460;11.450;2023-08-01T10:40:09;3.85;;;2.60;;
38591;SDS011;24356;48.460;11.450;2023-08-01T10:42:42;4.90;;;3.00;;
38591;SDS011;24356;48.460;11.450;2023-08-01T10:45:24;7.15;;;3.10;;
38591;SDS011;24356;48.460;11.450;2023-08-01T10:47:52;4.55;;;2.55;;
38591;SDS011;24356;48.460;11.450;2023-08-01T10:50:19;4.05;;;2.85;;
38591;SDS011;24356;48.460;11.450;2023-08-01T10:52:45;5.05;;;2.85;;
38591;SDS011;24356;48.460;11.450;2023-08-01T10:55:11;5.20;;;2.85;;
38591;SDS011;24356;48.460;11.450;2023-08-01T10:57:47;4.57;;;2.80;;
38591;SDS011;24356;48.460;11.450;2023-08-01T11:00:15;3.40;;;2.42;;
38591;SDS011;24356;48.460;11.450;2023-08-01T11:02:42;4.43;;;2.90;;
38591;SDS011;24356;48.460;11.450;2023-08-01T11:05:14;6.72;;;2.85;;
38591;SDS011;24356;48.460;11.450;2023-08-01T11:07:40;5.50;;;2.70;;
38591;SDS011;24356;48.460;11.450;2023-08-01T11:12:36;6.00;;;2.60;;
38591;SDS011;24356;48.460;11.450;2023-08-01T11:15:04;4.05;;;2.83;;
38591;SDS011;24356;48.460;11.450;2023-08-01T11:17:32;3.67;;;2.40;;
38591;SDS011;24356;48.460;11.450;2023-08-01T11:20:02;4.50;;;2.80;;
38591;SDS011;24356;48.460;11.450;2023-08-01T11:22:29;4.32;;;2.80;;
38591;SDS011;24356;48.460;11.450;2023-08-01T11:24:56;3.90;;;2.47;;
38591;SDS011;24356;48.460;11.450;2023-08-01T11:27:21;4.05;;;2.90;;
38591;SDS011;24356;48.460;11.450;2023-08-01T11:29:47;4.03;;;2.60;;
38591;SDS011;24356;48.460;11.450;2023-08-01T11:32:12;3.97;;;2.15;;
38591;SDS011;24356;48.460;11.450;2023-08-01T11:34:41;4.53;;;2.47;;
38591;SDS011;24356;48.460;11.450;2023-08-01T11:37:10;4.07;;;2.40;;
38591;SDS011;24356;48.460;11.450;2023-08-01T11:39:36;3.92;;;2.40;;
38591;SDS011;24356;48.460;11.450;2023-08-01T11:42:02;7.60;;;2.20;;
38591;SDS011;24356;48.460;11.450;2023-08-01T11:44:28;4.80;;;2.45;;
38591;SDS011;24356;48.460;11.450;2023-08-01T11:46:54;4.93;;;2.22;;
38591;SDS011;24356;48.460;11.450;2023-08-01T11:49:20;2.80;;;1.90;;
38591;SDS011;24356;48.460;11.450;2023-08-01T11:51:46;3.65;;;2.38;;
38591;SDS011;24356;48.460;11.450;2023-08-01T11:54:12;3.75;;;2.15;;
38591;SDS011;24356;48.460;11.450;2023-08-01T11:56:39;4.00;;;2.20;;
38591;SDS011;24356;48.460;11.450;2023-08-01T11:59:13;3.63;;;2.30;;
38591;SDS011;24356;48.460;11.450;2023-08-01T12:01:41;4.20;;;2.35;;
38591;SDS011;24356;48.460;11.450;2023-08-01T12:04:08;3.35;;;1.92;;
38591;SDS011;24356;48.460;11.450;2023-08-01T12:06:34;3.55;;;2.00;;
38591;SDS011;24356;48.460;11.450;2023-08-01T12:09:08;3.70;;;1.90;;
38591;SDS011;24356;48.460;11.450;2023-08-01T12:11:36;5.43;;;2.10;;
38591;SDS011;24356;48.460;11.450;2023-08-01T12:14:14;2.67;;;2.00;;
38591;SDS011;24356;48.460;11.450;2023-08-01T12:16:49;3.88;;;1.80;;
38591;SDS011;24356;48.460;11.450;2023-08-01T12:19:17;4.50;;;1.88;;
38591;SDS011;24356;48.460;11.450;2023-08-01T12:21:44;3.00;;;1.80;;
38591;SDS011;24356;48.460;11.450;2023-08-01T12:24:10;3.08;;;1.88;;
38591;SDS011;24356;48.460;11.450;2023-08-01T12:26:36;4.05;;;2.00;;
38591;SDS011;24356;48.460;11.450;2023-08-01T12:29:01;2.80;;;1.77;;
38591;SDS011;24356;48.460;11.450;2023-08-01T12:31:27;3.80;;;2.20;;
38591;SDS011;24356;48.460;11.450;2023-08-01T12:33:53;3.08;;;1.90;;
38591;SDS011;24356;48.460;11.450;2023-08-01T12:36:18;3.88;;;2.15;;
38591;SDS011;24356;48.460;11.450;2023-08-01T12:38:44;3.55;;;2.03;;
38591;SDS011;24356;48.460;11.450;2023-08-01T12:41:10;3.60;;;2.17;;
38591;SDS011;24356;48.460;11.450;2023-08-01T12:43:36;3.15;;;2.25;;
38591;SDS011;24356;48.460;11.450;2023-08-01T12:46:01;2.47;;;1.83;;
38591;SDS011;24356;48.460;11.450;2023-08-01T12:48:27;3.13;;;2.05;;
38591;SDS011;24356;48.460;11.450;2023-08-01T12:50:55;4.43;;;2.22;;
38591;SDS011;24356;48.460;11.450;2023-08-01T12:53:21;2.67;;;1.90;;
38591;SDS011;24356;48.460;11.450;2023-08-01T12:55:47;2.25;;;1.90;;
38591;SDS011;24356;48.460;11.450;2023-08-01T12:58:15;4.13;;;2.38;;
38591;SDS011;24356;48.460;11.450;2023-08-01T13:00:42;2.92;;;2.17;;
38591;SDS011;24356;48.460;11.450;2023-08-01T13:03:08;3.53;;;1.60;;
38591;SDS011;24356;48.460;11.450;2023-08-01T13:05:35;3.22;;;1.67;;
38591;SDS011;24356;48.460;11.450;2023-08-01T13:08:01;2.05;;;1.60;;
38591;SDS011;24356;48.460;11.450;2023-08-01T13:10:34;3.78;;;1.80;;
38591;SDS011;24356;48.460;11.450;2023-08-01T13:13:01;2.25;;;1.67;;
38591;SDS011;24356;48.460;11.450;2023-08-01T13:15:28;1.40;;;1.20;;
38591;SDS011;24356;48.460;11.450;2023-08-01T13:17:54;1.80;;;1.30;;
38591;SDS011;24356;48.460;11.450;2023-08-01T13:20:20;1.40;;;1.30;;
38591;SDS011;24356;48.460;11.450;2023-08-01T13:22:46;3.70;;;1.60;;
38591;SDS011;24356;48.460;11.450;2023-08-01T13:25:13;2.15;;;1.52;;
38591;SDS011;24356;48.460;11.450;2023-08-01T13:27:39;2.75;;;1.55;;
38591;SDS011;24356;48.460;11.450;2023-08-01T13:30:05;4.95;;;1.80;;
38591;SDS011;24356;48.460;11.450;2023-08-01T13:32:31;3.47;;;1.80;;
38591;SDS011;24356;48.460;11.450;2023-08-01T13:34:57;2.88;;;1.67;;
38591;SDS011;24356;48.460;11.450;2023-08-01T13:37:22;3.33;;;1.80;;
38591;SDS011;24356;48.460;11.450;2023-08-01T13:39:48;1.70;;;1.35;;
38591;SDS011;24356;48.460;11.450;2023-08-01T13:42:14;1.48;;;1.20;;
38591;SDS011;24356;48.460;11.450;2023-08-01T13:44:40;3.28;;;1.40;;
38591;SDS011;24356;48.460;11.450;2023-08-01T13:47:06;2.22;;;1.30;;
38591;SDS011;24356;48.460;11.450;2023-08-01T13:49:31;3.28;;;1.40;;
38591;SDS011;24356;48.460;11.450;2023-08-01T13:51:57;2.55;;;1.40;;
38591;SDS011;24356;48.460;11.450;2023-08-01T13:54:23;1.90;;;1.52;;
38591;SDS011;24356;48.460;11.450;2023-08-01T13:56:49;2.47;;;1.60;;
38591;SDS011;24356;48.460;11.450;2023-08-01T13:59:15;2.88;;;1.77;;
38591;SDS011;24356;48.460;11.450;2023-08-01T14:01:40;2.17;;;1.58;;
38591;SDS011;24356;48.460;11.450;2023-08-01T14:04:06;2.65;;;1.90;;
38591;SDS011;24356;48.460;11.450;2023-08-01T14:06:32;2.38;;;1.30;;
38591;SDS011;24356;48.460;11.450;2023-08-01T14:08:57;4.40;;;1.95;;
38591;SDS011;24356;48.460;11.450;2023-08-01T14:11:23;3.10;;;1.75;;
38591;SDS011;24356;48.460;11.450;2023-08-01T14:13:48;2.85;;;1.60;;
38591;SDS011;24356;48.460;11.450;2023-08-01T14:16:14;2.08;;;1.60;;
38591;SDS011;24356;48.460;11.450;2023-08-01T14:18:41;4.72;;;1.50;;
38591;SDS011;24356;48.460;11.450;2023-08-01T14:21:08;2.10;;;1.60;;
38591;SDS011;24356;48.460;11.450;2023-08-01T14:23:34;2.47;;;1.40;;
38591;SDS011;24356;48.460;11.450;2023-08-01T14:26:02;2.95;;;1.58;;
38591;SDS011;24356;48.460;11.450;2023-08-01T14:28:32;1.25;;;1.13;;
38591;SDS011;24356;48.460;11.450;2023-08-01T14:30:59;4.68;;;1.33;;
38591;SDS011;24356;48.460;11.450;2023-08-01T14:33:26;1.38;;;1.10;;
38591;SDS011;24356;48.460;11.450;2023-08-01T14:35:52;1.80;;;1.23;;
38591;SDS011;24356;48.460;11.450;2023-08-01T14:38:18;1.48;;;1.23;;
38591;SDS011;24356;48.460;11.450;2023-08-01T14:40:44;4.13;;;1.20;;